Mollusk, Virginia
Current Conditions -  °F | °C
As of 12:35 AM on Tuesday 27 Jan 2015 (Local Time) from KW75 Reporting Station
Overcast Overcast  
Wind Chill: 22°   Ceiling: 800
Heat Index: 31°   Visibility: 3mi
Dew Point: 29°   Wind: 13mph
Humidity: 92%   Direction: 330°NNW
Pressure: 29.67"   Gusts: 18mph
Location:  37.73°N, 76.54°W
Report Text: KW75 270535Z AUTO 33011G16KT 3SM OVC008 00/M01 A2967 RMK AO1 T10031015
Loading
Personal Weather Stations






























Interactive Weather Map New forecast layout! Learn more

10-Day Weather Forecast

Advertisements
Track Severe Weather on mobile